createdAt,value
2023-03-22T00:00:17.761Z,31.50
2023-03-22T00:02:48.117Z,31.73
2023-03-22T00:05:17.033Z,30.10
2023-03-22T00:07:45.790Z,30.83
2023-03-22T00:10:14.512Z,33.40
2023-03-22T00:12:43.260Z,32.23
2023-03-22T00:15:12.907Z,31.00
2023-03-22T00:17:42.263Z,34.53
2023-03-22T00:20:13.779Z,31.13
2023-03-22T00:22:42.569Z,32.67
2023-03-22T00:25:11.869Z,33.00
2023-03-22T00:27:40.638Z,32.70
2023-03-22T00:30:10.909Z,32.23
2023-03-22T00:32:40.164Z,34.47
2023-03-22T00:35:09.655Z,34.20
2023-03-22T00:37:40.134Z,34.10
2023-03-22T00:40:12.534Z,31.80
2023-03-22T00:42:42.699Z,31.80
2023-03-22T00:45:13.459Z,33.60
2023-03-22T00:47:42.349Z,33.43
2023-03-22T00:50:11.907Z,32.37
2023-03-22T00:52:42.102Z,34.70
2023-03-22T00:55:11.061Z,36.07
2023-03-22T00:57:39.762Z,35.07
2023-03-22T01:00:13.630Z,35.93
2023-03-22T01:02:42.793Z,33.30
2023-03-22T01:05:15.904Z,32.70
2023-03-22T01:07:46.335Z,32.87
2023-03-22T01:10:15.099Z,31.47
2023-03-22T01:12:43.774Z,34.30
2023-03-22T01:15:13.247Z,31.90
2023-03-22T01:17:42.109Z,33.53
2023-03-22T01:20:12.139Z,32.77
2023-03-22T01:22:41.955Z,33.60
2023-03-22T01:25:12.329Z,34.70
2023-03-22T01:27:41.179Z,33.17
2023-03-22T01:30:11.025Z,32.60
2023-03-22T01:32:40.141Z,32.67
2023-03-22T01:35:09.327Z,33.93
2023-03-22T01:37:38.103Z,34.27
2023-03-22T01:40:08.478Z,34.17
2023-03-22T01:42:38.617Z,33.60
2023-03-22T01:45:38.858Z,33.13
2023-03-22T01:48:13.964Z,31.90
2023-03-22T01:50:46.903Z,31.53
2023-03-22T01:53:19.006Z,33.20
2023-03-22T01:55:48.509Z,31.40
2023-03-22T01:58:19.279Z,34.57
2023-03-22T02:00:49.534Z,35.10
2023-03-22T02:03:23.774Z,35.20
2023-03-22T02:05:53.144Z,35.70
2023-03-22T02:08:21.981Z,32.33
2023-03-22T02:10:50.774Z,35.30
2023-03-22T02:13:39.146Z,33.80
2023-03-22T02:16:20.015Z,35.00
2023-03-22T02:19:04.054Z,36.57
2023-03-22T02:22:06.750Z,36.03
2023-03-22T02:25:14.072Z,35.00
2023-03-22T02:28:15.888Z,32.80
2023-03-22T02:31:23.744Z,37.23
2023-03-22T02:34:17.016Z,35.23
2023-03-22T02:37:08.974Z,32.10
2023-03-22T02:39:43.701Z,33.27
2023-03-22T02:42:25.050Z,33.17
2023-03-22T02:45:03.050Z,33.97
2023-03-22T02:47:40.965Z,33.53
2023-03-22T02:50:15.672Z,32.47
2023-03-22T02:52:48.644Z,35.17
2023-03-22T02:55:23.401Z,32.77
2023-03-22T02:57:57.651Z,31.27
2023-03-22T03:00:28.251Z,32.30
2023-03-22T03:03:01.385Z,32.10
2023-03-22T03:05:34.242Z,33.60
2023-03-22T03:08:04.304Z,31.93
2023-03-22T03:10:35.913Z,31.23
2023-03-22T03:13:04.620Z,32.23
2023-03-22T03:15:33.829Z,31.83
2023-03-22T03:18:22.809Z,32.77
2023-03-22T03:21:02.558Z,33.37
2023-03-22T03:23:40.379Z,33.20
2023-03-22T03:26:15.816Z,30.50
2023-03-22T03:28:52.858Z,32.20
2023-03-22T03:31:31.838Z,32.30
2023-03-22T03:34:09.229Z,32.60
2023-03-22T03:36:41.993Z,32.07
2023-03-22T03:39:14.324Z,32.57
2023-03-22T03:41:47.342Z,30.47
2023-03-22T03:44:17.984Z,32.07
2023-03-22T03:46:48.051Z,32.30
2023-03-22T03:49:18.560Z,31.07
2023-03-22T03:51:49.991Z,31.40
2023-03-22T03:54:18.765Z,30.10
2023-03-22T03:56:49.568Z,32.00
2023-03-22T03:59:19.493Z,31.10
2023-03-22T04:01:52.532Z,28.53
2023-03-22T04:04:26.935Z,30.90
2023-03-22T04:06:58.018Z,30.47
2023-03-22T04:09:28.336Z,30.40
2023-03-22T04:11:59.336Z,29.33
2023-03-22T04:14:28.941Z,30.70
2023-03-22T04:16:58.010Z,31.60
2023-03-22T04:19:26.905Z,30.80
2023-03-22T04:21:55.723Z,30.80
2023-03-22T04:24:24.470Z,30.00
2023-03-22T04:26:53.800Z,29.97
2023-03-22T04:29:24.751Z,29.70
2023-03-22T04:31:54.433Z,30.60
2023-03-22T04:34:23.160Z,30.50
2023-03-22T04:36:51.858Z,32.33
2023-03-22T04:39:20.589Z,31.23
2023-03-22T04:41:49.325Z,31.50
2023-03-22T04:44:18.078Z,30.97
2023-03-22T04:46:48.219Z,31.70
2023-03-22T04:49:17.171Z,32.90
2023-03-22T04:51:45.983Z,33.70
2023-03-22T04:54:14.691Z,31.53
2023-03-22T04:56:43.392Z,31.90
2023-03-22T04:59:12.256Z,33.73
2023-03-22T05:01:42.802Z,32.90
2023-03-22T05:04:13.157Z,32.67
2023-03-22T05:06:41.941Z,33.73
2023-03-22T05:09:11.202Z,31.07
2023-03-22T05:11:40.890Z,33.57
2023-03-22T05:14:10.241Z,31.73
2023-03-22T05:16:40.805Z,32.37
2023-03-22T05:19:14.171Z,32.03
2023-03-22T05:21:45.382Z,33.33
2023-03-22T05:24:14.257Z,33.83
2023-03-22T05:26:43.202Z,34.20
2023-03-22T05:29:12.489Z,31.27
2023-03-22T05:31:41.504Z,31.97
2023-03-22T05:34:10.284Z,33.47
2023-03-22T05:36:39.027Z,32.63
2023-03-22T05:39:09.517Z,32.30
2023-03-22T05:41:38.234Z,30.67
2023-03-22T05:44:07.328Z,32.93
2023-03-22T05:46:36.253Z,30.90
2023-03-22T05:49:05.019Z,32.63
2023-03-22T05:51:34.229Z,34.93
2023-03-22T05:54:03.023Z,32.33
2023-03-22T05:56:33.577Z,31.30
2023-03-22T05:59:02.357Z,31.00
2023-03-22T06:01:31.125Z,31.47
2023-03-22T06:04:06.094Z,32.10
2023-03-22T06:06:34.755Z,31.80
2023-03-22T06:09:16.531Z,33.30
2023-03-22T06:11:47.549Z,31.80
2023-03-22T06:14:16.317Z,32.30
2023-03-22T06:16:45.137Z,32.17
2023-03-22T06:19:13.947Z,31.10
2023-03-22T06:21:42.713Z,32.97
2023-03-22T06:24:11.868Z,33.03
2023-03-22T06:26:41.449Z,30.97
2023-03-22T06:29:11.711Z,29.80
2023-03-22T06:31:42.837Z,31.80
2023-03-22T06:34:11.457Z,29.30
2023-03-22T06:36:41.227Z,31.33
2023-03-22T06:39:10.414Z,30.97
2023-03-22T06:41:39.110Z,29.47
2023-03-22T06:44:07.862Z,29.77
2023-03-22T06:46:38.232Z,28.30
2023-03-22T06:49:08.191Z,29.93
2023-03-22T06:51:37.245Z,30.13
2023-03-22T06:54:06.228Z,28.60
2023-03-22T06:56:34.923Z,31.00
2023-03-22T06:59:04.423Z,28.67
2023-03-22T07:01:33.269Z,26.70
2023-03-22T07:04:04.178Z,29.17
2023-03-22T07:06:33.366Z,28.10
2023-03-22T07:09:02.490Z,27.23
2023-03-22T07:11:31.293Z,30.40
2023-03-22T07:13:59.997Z,28.50
2023-03-22T07:16:28.851Z,27.07
2023-03-22T07:18:57.922Z,29.60
2023-03-22T07:21:28.396Z,26.17
2023-03-22T07:23:58.497Z,28.47
2023-03-22T07:26:27.701Z,25.90
2023-03-22T07:28:57.140Z,27.00
2023-03-22T07:31:26.067Z,27.80
2023-03-22T07:33:54.837Z,25.67
2023-03-22T07:36:26.267Z,28.23
2023-03-22T07:38:56.810Z,26.73
2023-03-22T07:41:27.490Z,24.97
2023-03-22T07:44:07.885Z,26.67
2023-03-22T07:46:46.983Z,24.90
2023-03-22T07:49:20.563Z,25.20
2023-03-22T07:51:49.295Z,25.33
2023-03-22T07:54:33.565Z,25.67
2023-03-22T07:57:07.617Z,23.67
2023-03-22T07:59:40.281Z,26.20
2023-03-22T08:02:17.096Z,25.20
2023-03-22T08:04:53.889Z,23.67
2023-03-22T08:07:25.538Z,23.33
2023-03-22T08:09:56.828Z,24.40
2023-03-22T08:12:28.341Z,22.67
2023-03-22T08:14:57.357Z,23.07
2023-03-22T08:17:26.502Z,23.43
2023-03-22T08:19:56.411Z,24.47
2023-03-22T08:22:26.172Z,24.00
2023-03-22T08:24:56.430Z,22.63
2023-03-22T08:27:25.171Z,24.87
2023-03-22T08:29:53.991Z,22.40
2023-03-22T08:32:22.840Z,24.33
2023-03-22T08:34:51.649Z,24.03
2023-03-22T08:37:21.198Z,23.53
2023-03-22T08:39:49.971Z,24.50
2023-03-22T08:42:20.122Z,20.73
2023-03-22T08:44:49.481Z,22.27
2023-03-22T08:47:18.151Z,22.83
2023-03-22T08:49:46.957Z,23.20
2023-03-22T08:52:15.758Z,22.17
2023-03-22T08:54:44.559Z,19.73
2023-03-22T08:57:14.648Z,20.90
2023-03-22T08:59:44.898Z,20.43
2023-03-22T09:02:13.796Z,21.07
2023-03-22T09:04:43.025Z,20.77
2023-03-22T09:07:12.118Z,19.97
2023-03-22T09:09:42.243Z,20.00
2023-03-22T09:12:11.675Z,19.87
2023-03-22T09:14:40.567Z,20.23
2023-03-22T09:17:11.114Z,19.37
2023-03-22T09:19:40.069Z,18.80
2023-03-22T09:22:08.988Z,18.50
2023-03-22T09:24:39.369Z,17.67
2023-03-22T09:27:08.506Z,16.23
2023-03-22T09:29:37.527Z,15.47
2023-03-22T09:32:06.836Z,16.73
2023-03-22T09:34:37.320Z,16.90
2023-03-22T09:37:06.542Z,17.20
2023-03-22T09:39:38.643Z,16.37
2023-03-22T09:42:14.660Z,16.10
2023-03-22T09:44:46.527Z,15.73
2023-03-22T09:47:18.892Z,16.20
2023-03-22T09:49:54.099Z,15.70
2023-03-22T09:52:23.990Z,15.83
2023-03-22T09:54:53.418Z,15.40
2023-03-22T09:57:28.297Z,17.53
2023-03-22T10:00:11.408Z,20.03
2023-03-22T10:02:53.903Z,12.63
2023-03-22T10:05:33.536Z,14.67
2023-03-22T10:08:17.935Z,12.23
2023-03-22T10:10:47.030Z,12.00
2023-03-22T10:13:23.237Z,13.00
2023-03-22T10:15:54.641Z,13.60
2023-03-22T10:18:27.545Z,13.27
2023-03-22T10:21:02.140Z,11.63
2023-03-22T10:23:36.965Z,11.90
2023-03-22T10:26:08.095Z,11.53
2023-03-22T10:28:41.004Z,10.70
2023-03-22T10:31:17.751Z,10.77
2023-03-22T10:33:54.012Z,12.20
2023-03-22T10:36:27.926Z,11.37
2023-03-22T10:38:59.308Z,12.97
2023-03-22T10:41:31.035Z,12.20
2023-03-22T10:44:04.387Z,14.03
2023-03-22T10:46:38.598Z,12.13
2023-03-22T10:49:10.086Z,13.07
2023-03-22T10:51:44.964Z,12.70
2023-03-22T10:54:16.872Z,11.03
2023-03-22T10:56:47.757Z,12.03
2023-03-22T10:59:46.168Z,11.10
2023-03-22T11:02:31.614Z,11.03
2023-03-22T11:05:02.738Z,12.00
2023-03-22T11:07:35.595Z,11.50
2023-03-22T11:10:30.303Z,12.03
2023-03-22T11:13:35.183Z,12.83
2023-03-22T11:16:06.059Z,11.83
2023-03-22T11:18:36.873Z,12.83
2023-03-22T11:21:09.144Z,13.73
2023-03-22T11:23:42.825Z,13.00
2023-03-22T11:26:13.695Z,12.70
2023-03-22T11:28:47.948Z,13.40
2023-03-22T11:31:18.885Z,13.00
2023-03-22T11:33:58.294Z,13.60
2023-03-22T11:36:28.722Z,13.30
2023-03-22T11:39:03.517Z,13.47
2023-03-22T11:41:37.813Z,15.03
2023-03-22T11:44:10.090Z,13.87
2023-03-22T11:46:41.552Z,14.10
2023-03-22T11:49:16.228Z,13.40
2023-03-22T11:51:57.134Z,13.80
2023-03-22T11:54:32.890Z,14.53
2023-03-22T11:57:05.293Z,13.93
2023-03-22T11:59:40.290Z,14.77
2023-03-22T12:02:19.941Z,14.60
2023-03-22T12:04:52.003Z,14.00
2023-03-22T12:07:24.808Z,12.97
2023-03-22T12:10:19.017Z,13.23
2023-03-22T12:13:11.030Z,12.90
2023-03-22T12:15:48.748Z,13.60
2023-03-22T12:18:24.620Z,13.50
2023-03-22T12:20:57.492Z,19.80
2023-03-22T12:23:28.835Z,13.00
2023-03-22T12:26:04.085Z,14.17
2023-03-22T12:28:36.634Z,13.77
2023-03-22T12:31:08.213Z,12.60
2023-03-22T12:33:43.388Z,10.53
2023-03-22T12:36:17.685Z,9.80
2023-03-22T12:38:51.364Z,10.77
2023-03-22T12:41:28.654Z,10.20
2023-03-22T12:44:00.318Z,11.50
2023-03-22T12:46:33.206Z,11.70
2023-03-22T12:49:07.424Z,11.03
2023-03-22T12:51:36.912Z,11.33
2023-03-22T12:54:06.612Z,11.20
2023-03-22T12:56:41.350Z,9.10
2023-03-22T12:59:18.621Z,10.57
2023-03-22T13:01:52.424Z,9.70
2023-03-22T13:04:52.847Z,8.87
2023-03-22T13:07:41.372Z,8.27
2023-03-22T13:10:52.936Z,7.97
2023-03-22T13:13:56.205Z,8.10
2023-03-22T13:16:42.456Z,8.50
2023-03-22T13:19:34.772Z,8.10
2023-03-22T13:22:21.486Z,6.93
2023-03-22T13:25:29.311Z,7.13
2023-03-22T13:27:59.867Z,7.00
2023-03-22T13:30:34.978Z,8.20
2023-03-22T13:33:16.004Z,8.10
2023-03-22T13:35:48.996Z,7.00
2023-03-22T13:38:23.256Z,7.60
2023-03-22T13:40:58.031Z,7.70
2023-03-22T13:43:30.610Z,7.50
2023-03-22T13:46:30.984Z,8.43
2023-03-22T13:49:26.682Z,8.17
2023-03-22T13:51:57.519Z,7.37
2023-03-22T13:54:36.060Z,8.63
2023-03-22T13:57:04.916Z,7.63
2023-03-22T14:00:10.473Z,7.97
2023-03-22T14:02:44.582Z,7.13
2023-03-22T14:05:18.088Z,7.50
2023-03-22T14:07:51.594Z,7.53
2023-03-22T14:10:25.567Z,8.00
2023-03-22T14:12:59.620Z,6.70
2023-03-22T14:15:32.947Z,7.30
2023-03-22T14:18:09.823Z,7.30
2023-03-22T14:20:43.784Z,6.73
